sensor_id;sensor_type;location;lat;lon;timestamp;temperature;humidity
6098;DHT22;3077;50.922;6.584;2023-12-20T00:00:55;8.10;99.90
6098;DHT22;3077;50.922;6.584;2023-12-20T00:03:20;8.10;99.90
6098;DHT22;3077;50.922;6.584;2023-12-20T00:05:47;8.00;99.90
6098;DHT22;3077;50.922;6.584;2023-12-20T00:08:13;7.60;99.90
6098;DHT22;3077;50.922;6.584;2023-12-20T00:10:38;8.10;99.90
6098;DHT22;3077;50.922;6.584;2023-12-20T00:13:04;8.00;99.90
6098;DHT22;3077;50.922;6.584;2023-12-20T00:15:29;8.00;99.90
6098;DHT22;3077;50.922;6.584;2023-12-20T00:17:55;8.00;99.90
6098;DHT22;3077;50.922;6.584;2023-12-20T00:20:20;7.90;99.90
6098;DHT22;3077;50.922;6.584;2023-12-20T00:22:46;8.00;99.90
6098;DHT22;3077;50.922;6.584;2023-12-20T00:25:12;8.20;99.90
6098;DHT22;3077;50.922;6.584;2023-12-20T00:27:37;7.90;99.90
6098;DHT22;3077;50.922;6.584;2023-12-20T00:30:03;7.80;99.90
6098;DHT22;3077;50.922;6.584;2023-12-20T00:32:29;7.80;99.90
6098;DHT22;3077;50.922;6.584;2023-12-20T00:34:54;7.70;99.90
6098;DHT22;3077;50.922;6.584;2023-12-20T00:37:20;8.00;99.90
6098;DHT22;3077;50.922;6.584;2023-12-20T00:39:45;7.80;99.90
6098;DHT22;3077;50.922;6.584;2023-12-20T00:42:11;7.50;99.90
6098;DHT22;3077;50.922;6.584;2023-12-20T00:44:37;7.80;99.90
6098;DHT22;3077;50.922;6.584;2023-12-20T00:47:03;7.60;99.90
6098;DHT22;3077;50.922;6.584;2023-12-20T00:49:28;7.60;99.90
6098;DHT22;3077;50.922;6.584;2023-12-20T00:51:54;7.90;99.90
6098;DHT22;3077;50.922;6.584;2023-12-20T00:54:19;7.50;99.90
6098;DHT22;3077;50.922;6.584;2023-12-20T00:56:45;7.50;99.90
6098;DHT22;3077;50.922;6.584;2023-12-20T00:59:11;7.50;99.90
6098;DHT22;3077;50.922;6.584;2023-12-20T01:01:36;7.50;99.90
6098;DHT22;3077;50.922;6.584;2023-12-20T01:04:02;7.30;99.90
6098;DHT22;3077;50.922;6.584;2023-12-20T01:06:27;7.50;99.90
6098;DHT22;3077;50.922;6.584;2023-12-20T01:08:53;7.50;99.90
6098;DHT22;3077;50.922;6.584;2023-12-20T01:11:19;7.80;99.90
6098;DHT22;3077;50.922;6.584;2023-12-20T01:13:44;7.50;99.90
6098;DHT22;3077;50.922;6.584;2023-12-20T01:16:11;7.50;99.90
6098;DHT22;3077;50.922;6.584;2023-12-20T01:18:37;7.50;99.90
6098;DHT22;3077;50.922;6.584;2023-12-20T01:21:03;7.40;99.90
6098;DHT22;3077;50.922;6.584;2023-12-20T01:23:29;7.40;99.90
6098;DHT22;3077;50.922;6.584;2023-12-20T01:25:55;7.30;99.90
6098;DHT22;3077;50.922;6.584;2023-12-20T01:28:20;7.10;99.90
6098;DHT22;3077;50.922;6.584;2023-12-20T01:30:46;7.30;99.90
6098;DHT22;3077;50.922;6.584;2023-12-20T01:33:12;7.10;99.90
6098;DHT22;3077;50.922;6.584;2023-12-20T01:38:03;7.10;99.90
6098;DHT22;3077;50.922;6.584;2023-12-20T01:40:29;7.10;99.90
6098;DHT22;3077;50.922;6.584;2023-12-20T01:43:02;7.10;99.90
6098;DHT22;3077;50.922;6.584;2023-12-20T01:45:28;7.10;99.90
6098;DHT22;3077;50.922;6.584;2023-12-20T01:47:55;7.00;99.90
6098;DHT22;3077;50.922;6.584;2023-12-20T01:50:21;6.70;99.90
6098;DHT22;3077;50.922;6.584;2023-12-20T01:52:47;6.50;99.90
6098;DHT22;3077;50.922;6.584;2023-12-20T01:55:13;6.70;99.90
6098;DHT22;3077;50.922;6.584;2023-12-20T01:57:44;7.00;99.90
6098;DHT22;3077;50.922;6.584;2023-12-20T02:00:11;6.40;99.90
6098;DHT22;3077;50.922;6.584;2023-12-20T02:02:39;6.50;99.90
6098;DHT22;3077;50.922;6.584;2023-12-20T02:05:06;6.50;99.90
6098;DHT22;3077;50.922;6.584;2023-12-20T02:07:32;6.50;99.90
6098;DHT22;3077;50.922;6.584;2023-12-20T02:12:26;6.40;99.90
6098;DHT22;3077;50.922;6.584;2023-12-20T02:14:51;6.30;99.90
6098;DHT22;3077;50.922;6.584;2023-12-20T02:17:17;6.20;99.90
6098;DHT22;3077;50.922;6.584;2023-12-20T02:19:43;6.30;99.90
6098;DHT22;3077;50.922;6.584;2023-12-20T02:22:10;6.30;99.90
6098;DHT22;3077;50.922;6.584;2023-12-20T02:24:35;6.30;99.90
6098;DHT22;3077;50.922;6.584;2023-12-20T02:27:01;6.40;99.90
6098;DHT22;3077;50.922;6.584;2023-12-20T02:29:27;6.40;99.90
6098;DHT22;3077;50.922;6.584;2023-12-20T02:31:53;6.50;99.90
6098;DHT22;3077;50.922;6.584;2023-12-20T02:34:18;6.50;99.90
6098;DHT22;3077;50.922;6.584;2023-12-20T02:36:44;7.00;99.90
6098;DHT22;3077;50.922;6.584;2023-12-20T02:39:09;6.60;99.90
6098;DHT22;3077;50.922;6.584;2023-12-20T02:41:35;6.60;99.90
6098;DHT22;3077;50.922;6.584;2023-12-20T02:44:01;6.60;99.90
6098;DHT22;3077;50.922;6.584;2023-12-20T02:46:27;6.70;99.90
6098;DHT22;3077;50.922;6.584;2023-12-20T02:48:53;6.70;99.90
6098;DHT22;3077;50.922;6.584;2023-12-20T02:51:18;6.70;99.90
6098;DHT22;3077;50.922;6.584;2023-12-20T02:53:44;6.60;99.90
6098;DHT22;3077;50.922;6.584;2023-12-20T02:56:09;6.60;99.90
6098;DHT22;3077;50.922;6.584;2023-12-20T02:58:35;6.60;99.90
6098;DHT22;3077;50.922;6.584;2023-12-20T03:01:01;6.80;99.90
6098;DHT22;3077;50.922;6.584;2023-12-20T03:03:26;6.80;99.90
6098;DHT22;3077;50.922;6.584;2023-12-20T03:05:52;6.80;99.90
6098;DHT22;3077;50.922;6.584;2023-12-20T03:08:17;6.20;99.90
6098;DHT22;3077;50.922;6.584;2023-12-20T03:10:43;6.80;99.90
6098;DHT22;3077;50.922;6.584;2023-12-20T03:15:35;6.90;99.90
6098;DHT22;3077;50.922;6.584;2023-12-20T03:18:00;6.80;99.90
6098;DHT22;3077;50.922;6.584;2023-12-20T03:20:26;6.80;99.90
6098;DHT22;3077;50.922;6.584;2023-12-20T03:22:52;6.40;99.90
6098;DHT22;3077;50.922;6.584;2023-12-20T03:25:17;6.90;99.90
6098;DHT22;3077;50.922;6.584;2023-12-20T03:27:43;6.30;99.90
6098;DHT22;3077;50.922;6.584;2023-12-20T03:30:09;6.80;99.90
6098;DHT22;3077;50.922;6.584;2023-12-20T03:32:34;6.80;99.90
6098;DHT22;3077;50.922;6.584;2023-12-20T03:35:00;6.90;99.90
6098;DHT22;3077;50.922;6.584;2023-12-20T03:37:25;6.90;99.90
6098;DHT22;3077;50.922;6.584;2023-12-20T03:39:51;6.80;99.90
6098;DHT22;3077;50.922;6.584;2023-12-20T03:42:17;6.80;99.90
6098;DHT22;3077;50.922;6.584;2023-12-20T03:44:42;6.70;99.90
6098;DHT22;3077;50.922;6.584;2023-12-20T03:47:08;6.40;99.90
6098;DHT22;3077;50.922;6.584;2023-12-20T03:49:33;6.70;99.90
6098;DHT22;3077;50.922;6.584;2023-12-20T03:51:59;6.80;99.90
6098;DHT22;3077;50.922;6.584;2023-12-20T03:54:24;6.60;99.90
6098;DHT22;3077;50.922;6.584;2023-12-20T03:56:50;6.80;99.90
6098;DHT22;3077;50.922;6.584;2023-12-20T03:59:17;6.80;99.90
6098;DHT22;3077;50.922;6.584;2023-12-20T04:01:43;6.70;99.90
6098;DHT22;3077;50.922;6.584;2023-12-20T04:04:10;6.70;99.90
6098;DHT22;3077;50.922;6.584;2023-12-20T04:06:36;6.60;99.90
6098;DHT22;3077;50.922;6.584;2023-12-20T04:09:01;6.50;99.90
6098;DHT22;3077;50.922;6.584;2023-12-20T04:11:27;6.70;99.90
6098;DHT22;3077;50.922;6.584;2023-12-20T04:13:52;6.40;99.90
6098;DHT22;3077;50.922;6.584;2023-12-20T04:16:18;6.70;99.90
6098;DHT22;3077;50.922;6.584;2023-12-20T04:18:44;6.60;99.90
6098;DHT22;3077;50.922;6.584;2023-12-20T04:21:09;6.70;99.90
6098;DHT22;3077;50.922;6.584;2023-12-20T04:23:35;6.60;99.90
6098;DHT22;3077;50.922;6.584;2023-12-20T04:26:00;6.60;99.90
6098;DHT22;3077;50.922;6.584;2023-12-20T04:28:26;6.50;99.90
6098;DHT22;3077;50.922;6.584;2023-12-20T04:30:51;6.50;99.90
6098;DHT22;3077;50.922;6.584;2023-12-20T04:33:17;6.40;99.90
6098;DHT22;3077;50.922;6.584;2023-12-20T04:35:42;6.40;99.90
6098;DHT22;3077;50.922;6.584;2023-12-20T04:38:09;6.30;99.90
6098;DHT22;3077;50.922;6.584;2023-12-20T04:40:34;6.30;99.90
6098;DHT22;3077;50.922;6.584;2023-12-20T04:43:00;6.30;99.90
6098;DHT22;3077;50.922;6.584;2023-12-20T04:45:25;6.70;99.90
6098;DHT22;3077;50.922;6.584;2023-12-20T04:47:51;6.40;99.90
6098;DHT22;3077;50.922;6.584;2023-12-20T04:50:17;6.30;99.90
6098;DHT22;3077;50.922;6.584;2023-12-20T04:52:43;6.30;99.90
6098;DHT22;3077;50.922;6.584;2023-12-20T04:55:08;6.30;99.90
6098;DHT22;3077;50.922;6.584;2023-12-20T04:57:35;6.30;99.90
6098;DHT22;3077;50.922;6.584;2023-12-20T05:00:00;6.30;99.90
6098;DHT22;3077;50.922;6.584;2023-12-20T05:02:26;6.20;99.90
6098;DHT22;3077;50.922;6.584;2023-12-20T05:04:51;6.30;99.90
6098;DHT22;3077;50.922;6.584;2023-12-20T05:07:17;6.30;99.90
6098;DHT22;3077;50.922;6.584;2023-12-20T05:09:42;6.40;99.90
6098;DHT22;3077;50.922;6.584;2023-12-20T05:12:08;6.40;99.90
6098;DHT22;3077;50.922;6.584;2023-12-20T05:14:34;6.40;99.90
6098;DHT22;3077;50.922;6.584;2023-12-20T05:16:59;6.40;99.90
6098;DHT22;3077;50.922;6.584;2023-12-20T05:19:25;6.40;99.90
6098;DHT22;3077;50.922;6.584;2023-12-20T05:21:51;5.90;99.90
6098;DHT22;3077;50.922;6.584;2023-12-20T05:24:17;6.40;99.90
6098;DHT22;3077;50.922;6.584;2023-12-20T05:26:43;7.20;99.90
6098;DHT22;3077;50.922;6.584;2023-12-20T05:29:08;6.40;99.90
6098;DHT22;3077;50.922;6.584;2023-12-20T05:31:34;6.50;99.90
6098;DHT22;3077;50.922;6.584;2023-12-20T05:33:59;6.40;99.90
6098;DHT22;3077;50.922;6.584;2023-12-20T05:36:25;6.40;99.90
6098;DHT22;3077;50.922;6.584;2023-12-20T05:38:51;6.40;99.90
6098;DHT22;3077;50.922;6.584;2023-12-20T05:41:16;6.40;99.90
6098;DHT22;3077;50.922;6.584;2023-12-20T05:43:42;6.40;99.90
6098;DHT22;3077;50.922;6.584;2023-12-20T05:46:10;6.40;99.90
6098;DHT22;3077;50.922;6.584;2023-12-20T05:48:36;6.40;99.90
6098;DHT22;3077;50.922;6.584;2023-12-20T05:51:02;6.40;99.90
6098;DHT22;3077;50.922;6.584;2023-12-20T05:53:27;6.50;99.90
6098;DHT22;3077;50.922;6.584;2023-12-20T05:55:53;6.50;99.90
6098;DHT22;3077;50.922;6.584;2023-12-20T05:58:19;6.50;99.90
6098;DHT22;3077;50.922;6.584;2023-12-20T06:00:44;6.50;99.90
6098;DHT22;3077;50.922;6.584;2023-12-20T06:03:10;6.50;99.90
6098;DHT22;3077;50.922;6.584;2023-12-20T06:05:35;6.50;99.90
6098;DHT22;3077;50.922;6.584;2023-12-20T06:08:01;6.60;99.90
6098;DHT22;3077;50.922;6.584;2023-12-20T06:10:28;6.50;99.90
6098;DHT22;3077;50.922;6.584;2023-12-20T06:12:54;6.60;99.90
6098;DHT22;3077;50.922;6.584;2023-12-20T06:15:20;6.60;99.90
6098;DHT22;3077;50.922;6.584;2023-12-20T06:17:46;6.70;99.90
6098;DHT22;3077;50.922;6.584;2023-12-20T06:20:12;6.60;99.90
6098;DHT22;3077;50.922;6.584;2023-12-20T06:22:38;6.50;99.90
6098;DHT22;3077;50.922;6.584;2023-12-20T06:25:04;6.60;99.90
6098;DHT22;3077;50.922;6.584;2023-12-20T06:27:30;6.60;99.90
6098;DHT22;3077;50.922;6.584;2023-12-20T06:29:57;6.60;99.90
6098;DHT22;3077;50.922;6.584;2023-12-20T06:32:23;6.60;99.90
6098;DHT22;3077;50.922;6.584;2023-12-20T06:37:15;6.60;99.90
6098;DHT22;3077;50.922;6.584;2023-12-20T06:39:41;6.70;99.90
6098;DHT22;3077;50.922;6.584;2023-12-20T06:42:06;6.70;99.90
6098;DHT22;3077;50.922;6.584;2023-12-20T06:44:32;6.70;99.90
6098;DHT22;3077;50.922;6.584;2023-12-20T06:46:58;6.70;99.90
6098;DHT22;3077;50.922;6.584;2023-12-20T06:49:23;6.40;99.90
6098;DHT22;3077;50.922;6.584;2023-12-20T06:51:49;6.70;99.90
6098;DHT22;3077;50.922;6.584;2023-12-20T06:54:15;6.70;99.90
6098;DHT22;3077;50.922;6.584;2023-12-20T06:56:40;6.50;99.90
6098;DHT22;3077;50.922;6.584;2023-12-20T06:59:06;6.70;99.90
6098;DHT22;3077;50.922;6.584;2023-12-20T07:01:32;6.70;99.90
6098;DHT22;3077;50.922;6.584;2023-12-20T07:03:57;6.50;99.90
6098;DHT22;3077;50.922;6.584;2023-12-20T07:06:23;6.70;99.90
6098;DHT22;3077;50.922;6.584;2023-12-20T07:08:51;6.70;99.90
6098;DHT22;3077;50.922;6.584;2023-12-20T07:11:17;6.40;99.90
6098;DHT22;3077;50.922;6.584;2023-12-20T07:13:43;6.60;99.90
6098;DHT22;3077;50.922;6.584;2023-12-20T07:16:08;6.60;99.90
6098;DHT22;3077;50.922;6.584;2023-12-20T07:18:34;6.70;99.90
6098;DHT22;3077;50.922;6.584;2023-12-20T07:20:59;6.70;99.90
6098;DHT22;3077;50.922;6.584;2023-12-20T07:23:25;6.60;99.90
6098;DHT22;3077;50.922;6.584;2023-12-20T07:25:52;6.70;99.90
6098;DHT22;3077;50.922;6.584;2023-12-20T07:28:17;6.60;99.90
6098;DHT22;3077;50.922;6.584;2023-12-20T07:30:43;6.60;99.90
6098;DHT22;3077;50.922;6.584;2023-12-20T07:33:08;6.60;99.90
6098;DHT22;3077;50.922;6.584;2023-12-20T07:35:35;7.30;99.90
6098;DHT22;3077;50.922;6.584;2023-12-20T07:38:00;6.60;99.90
6098;DHT22;3077;50.922;6.584;2023-12-20T07:40:27;6.90;99.90
6098;DHT22;3077;50.922;6.584;2023-12-20T07:42:53;6.70;99.90
6098;DHT22;3077;50.922;6.584;2023-12-20T07:45:18;6.70;99.90
6098;DHT22;3077;50.922;6.584;2023-12-20T07:47:44;6.60;99.90
6098;DHT22;3077;50.922;6.584;2023-12-20T07:50:09;6.80;99.90
6098;DHT22;3077;50.922;6.584;2023-12-20T07:52:35;6.60;99.90
6098;DHT22;3077;50.922;6.584;2023-12-20T07:55:01;6.60;99.90
6098;DHT22;3077;50.922;6.584;2023-12-20T07:57:29;6.50;99.90
6098;DHT22;3077;50.922;6.584;2023-12-20T07:59:56;6.50;99.90
6098;DHT22;3077;50.922;6.584;2023-12-20T08:02:21;6.50;99.90
6098;DHT22;3077;50.922;6.584;2023-12-20T08:04:47;6.40;99.90
6098;DHT22;3077;50.922;6.584;2023-12-20T08:07:13;6.40;99.90
6098;DHT22;3077;50.922;6.584;2023-12-20T08:09:38;6.40;99.90
6098;DHT22;3077;50.922;6.584;2023-12-20T08:12:04;6.40;99.90
6098;DHT22;3077;50.922;6.584;2023-12-20T08:14:29;6.30;99.90
6098;DHT22;3077;50.922;6.584;2023-12-20T08:16:55;6.30;99.90
6098;DHT22;3077;50.922;6.584;2023-12-20T08:19:20;6.30;99.90
6098;DHT22;3077;50.922;6.584;2023-12-20T08:21:46;6.30;99.90
6098;DHT22;3077;50.922;6.584;2023-12-20T08:24:12;6.00;99.90
6098;DHT22;3077;50.922;6.584;2023-12-20T08:26:37;6.30;99.90
6098;DHT22;3077;50.922;6.584;2023-12-20T08:29:03;6.00;99.90
6098;DHT22;3077;50.922;6.584;2023-12-20T08:31:28;6.30;99.90
6098;DHT22;3077;50.922;6.584;2023-12-20T08:33:54;6.30;99.90
6098;DHT22;3077;50.922;6.584;2023-12-20T08:36:20;6.30;99.90
6098;DHT22;3077;50.922;6.584;2023-12-20T08:38:47;6.30;99.90
6098;DHT22;3077;50.922;6.584;2023-12-20T08:41:13;6.40;99.90
6098;DHT22;3077;50.922;6.584;2023-12-20T08:43:39;6.30;99.90
6098;DHT22;3077;50.922;6.584;2023-12-20T08:46:05;6.50;99.90
6098;DHT22;3077;50.922;6.584;2023-12-20T08:48:31;6.30;99.90
6098;DHT22;3077;50.922;6.584;2023-12-20T08:50:57;6.40;99.90
6098;DHT22;3077;50.922;6.584;2023-12-20T08:53:22;6.40;99.90
6098;DHT22;3077;50.922;6.584;2023-12-20T08:55:48;6.40;99.90
6098;DHT22;3077;50.922;6.584;2023-12-20T08:58:14;6.50;99.90
6098;DHT22;3077;50.922;6.584;2023-12-20T09:00:39;6.40;99.90
6098;DHT22;3077;50.922;6.584;2023-12-20T09:03:05;6.50;99.90
6098;DHT22;3077;50.922;6.584;2023-12-20T09:05:31;6.30;99.90
6098;DHT22;3077;50.922;6.584;2023-12-20T09:07:57;6.60;99.90
6098;DHT22;3077;50.922;6.584;2023-12-20T09:10:22;6.50;99.90
6098;DHT22;3077;50.922;6.584;2023-12-20T09:12:52;6.70;99.90
6098;DHT22;3077;50.922;6.584;2023-12-20T09:15:26;6.60;99.90
6098;DHT22;3077;50.922;6.584;2023-12-20T09:17:54;6.50;99.90
6098;DHT22;3077;50.922;6.584;2023-12-20T09:20:19;6.70;99.90
6098;DHT22;3077;50.922;6.584;2023-12-20T09:22:45;6.80;99.90
6098;DHT22;3077;50.922;6.584;2023-12-20T09:25:11;6.80;99.90
6098;DHT22;3077;50.922;6.584;2023-12-20T09:27:38;6.90;99.90
6098;DHT22;3077;50.922;6.584;2023-12-20T09:30:04;6.80;99.90
6098;DHT22;3077;50.922;6.584;2023-12-20T09:32:31;6.90;99.90
6098;DHT22;3077;50.922;6.584;2023-12-20T09:34:56;7.00;99.90
6098;DHT22;3077;50.922;6.584;2023-12-20T09:37:22;7.00;99.90
6098;DHT22;3077;50.922;6.584;2023-12-20T09:39:47;7.00;99.90
6098;DHT22;3077;50.922;6.584;2023-12-20T09:42:17;7.00;99.90
6098;DHT22;3077;50.922;6.584;2023-12-20T09:44:47;7.10;99.90
6098;DHT22;3077;50.922;6.584;2023-12-20T09:47:14;7.10;99.90
6098;DHT22;3077;50.922;6.584;2023-12-20T09:49:42;7.10;99.90
6098;DHT22;3077;50.922;6.584;2023-12-20T09:52:09;7.10;99.90
6098;DHT22;3077;50.922;6.584;2023-12-20T09:54:36;7.10;99.90
6098;DHT22;3077;50.922;6.584;2023-12-20T09:57:02;7.10;99.90
6098;DHT22;3077;50.922;6.584;2023-12-20T09:59:27;7.00;99.90
6098;DHT22;3077;50.922;6.584;2023-12-20T10:01:55;7.10;99.90
6098;DHT22;3077;50.922;6.584;2023-12-20T10:04:22;7.10;99.90
6098;DHT22;3077;50.922;6.584;2023-12-20T10:06:47;7.10;99.90
6098;DHT22;3077;50.922;6.584;2023-12-20T10:09:13;6.90;99.90
6098;DHT22;3077;50.922;6.584;2023-12-20T10:11:39;7.10;99.90
6098;DHT22;3077;50.922;6.584;2023-12-20T10:14:08;7.10;99.90
6098;DHT22;3077;50.922;6.584;2023-12-20T10:16:35;7.50;99.90
6098;DHT22;3077;50.922;6.584;2023-12-20T10:19:01;7.20;99.90
6098;DHT22;3077;50.922;6.584;2023-12-20T10:21:27;7.30;99.90
6098;DHT22;3077;50.922;6.584;2023-12-20T10:23:56;7.20;99.90
6098;DHT22;3077;50.922;6.584;2023-12-20T10:26:23;7.30;99.90
6098;DHT22;3077;50.922;6.584;2023-12-20T10:28:59;7.10;99.90
6098;DHT22;3077;50.922;6.584;2023-12-20T10:31:34;7.20;99.90
6098;DHT22;3077;50.922;6.584;2023-12-20T10:34:02;7.20;99.90
6098;DHT22;3077;50.922;6.584;2023-12-20T10:36:32;7.20;99.90
6098;DHT22;3077;50.922;6.584;2023-12-20T10:38:58;7.10;99.90
6098;DHT22;3077;50.922;6.584;2023-12-20T10:41:32;7.10;99.90
6098;DHT22;3077;50.922;6.584;2023-12-20T10:43:59;7.20;99.90
6098;DHT22;3077;50.922;6.584;2023-12-20T10:46:29;7.20;99.90
6098;DHT22;3077;50.922;6.584;2023-12-20T10:48:56;7.20;99.90
6098;DHT22;3077;50.922;6.584;2023-12-20T10:51:22;7.30;99.90
6098;DHT22;3077;50.922;6.584;2023-12-20T10:53:50;7.30;99.90
6098;DHT22;3077;50.922;6.584;2023-12-20T10:56:17;7.30;99.90
6098;DHT22;3077;50.922;6.584;2023-12-20T10:58:50;7.20;99.90
6098;DHT22;3077;50.922;6.584;2023-12-20T11:01:19;7.30;99.90
6098;DHT22;3077;50.922;6.584;2023-12-20T11:03:52;7.30;99.90
6098;DHT22;3077;50.922;6.584;2023-12-20T11:11:55;7.30;99.90
6098;DHT22;3077;50.922;6.584;2023-12-20T11:14:36;7.30;99.90
6098;DHT22;3077;50.922;6.584;2023-12-20T11:17:08;7.30;99.90
6098;DHT22;3077;50.922;6.584;2023-12-20T11:19:38;7.30;99.90
6098;DHT22;3077;50.922;6.584;2023-12-20T11:22:04;7.30;99.90
6098;DHT22;3077;50.922;6.584;2023-12-20T11:24:31;7.40;99.90
6098;DHT22;3077;50.922;6.584;2023-12-20T11:26:59;7.30;99.90
6098;DHT22;3077;50.922;6.584;2023-12-20T11:29:35;7.40;99.90
6098;DHT22;3077;50.922;6.584;2023-12-20T11:32:02;7.40;99.90
6098;DHT22;3077;50.922;6.584;2023-12-20T11:34:33;7.50;99.90
6098;DHT22;3077;50.922;6.584;2023-12-20T11:37:02;7.50;99.90
6098;DHT22;3077;50.922;6.584;2023-12-20T11:39:28;7.60;99.90
6098;DHT22;3077;50.922;6.584;2023-12-20T11:41:56;7.60;99.90
6098;DHT22;3077;50.922;6.584;2023-12-20T11:44:22;7.60;99.90
6098;DHT22;3077;50.922;6.584;2023-12-20T11:46:48;7.60;99.90
6098;DHT22;3077;50.922;6.584;2023-12-20T11:49:14;7.50;99.90
6098;DHT22;3077;50.922;6.584;2023-12-20T11:51:42;7.60;99.90
6098;DHT22;3077;50.922;6.584;2023-12-20T11:54:09;7.60;99.90
6098;DHT22;3077;50.922;6.584;2023-12-20T11:56:36;7.60;99.90
6098;DHT22;3077;50.922;6.584;2023-12-20T11:59:02;7.50;99.90
6098;DHT22;3077;50.922;6.584;2023-12-20T12:01:28;7.60;99.90
6098;DHT22;3077;50.922;6.584;2023-12-20T12:04:12;7.60;99.90
6098;DHT22;3077;50.922;6.584;2023-12-20T12:06:37;7.60;99.90
6098;DHT22;3077;50.922;6.584;2023-12-20T12:09:03;7.60;99.90
6098;DHT22;3077;50.922;6.584;2023-12-20T12:11:30;7.60;99.90
6098;DHT22;3077;50.922;6.584;2023-12-20T12:13:55;7.60;99.90
6098;DHT22;3077;50.922;6.584;2023-12-20T12:16:21;7.60;99.90
6098;DHT22;3077;50.922;6.584;2023-12-20T12:18:55;7.60;99.90
6098;DHT22;3077;50.922;6.584;2023-12-20T12:21:21;7.60;99.90
6098;DHT22;3077;50.922;6.584;2023-12-20T12:23:46;7.60;99.90
6098;DHT22;3077;50.922;6.584;2023-12-20T12:26:12;7.60;99.90
6098;DHT22;3077;50.922;6.584;2023-12-20T12:28:40;7.60;99.90
6098;DHT22;3077;50.922;6.584;2023-12-20T12:31:07;7.60;99.90
6098;DHT22;3077;50.922;6.584;2023-12-20T12:33:33;7.60;99.90
6098;DHT22;3077;50.922;6.584;2023-12-20T12:36:00;7.60;99.90
6098;DHT22;3077;50.922;6.584;2023-12-20T12:38:26;7.70;99.90
6098;DHT22;3077;50.922;6.584;2023-12-20T12:40:52;7.60;99.90
6098;DHT22;3077;50.922;6.584;2023-12-20T12:43:19;7.60;99.90
6098;DHT22;3077;50.922;6.584;2023-12-20T12:45:44;7.70;99.90
6098;DHT22;3077;50.922;6.584;2023-12-20T12:48:10;7.70;99.90
6098;DHT22;3077;50.922;6.584;2023-12-20T12:50:36;7.60;99.90
6098;DHT22;3077;50.922;6.584;2023-12-20T12:53:01;7.70;99.90
6098;DHT22;3077;50.922;6.584;2023-12-20T12:55:28;7.50;99.90
6098;DHT22;3077;50.922;6.584;2023-12-20T12:57:54;7.50;99.90
6098;DHT22;3077;50.922;6.584;2023-12-20T13:00:19;7.50;99.90
6098;DHT22;3077;50.922;6.584;2023-12-20T13:02:45;7.50;99.90
6098;DHT22;3077;50.922;6.584;2023-12-20T13:05:11;7.50;99.90
6098;DHT22;3077;50.922;6.584;2023-12-20T13:07:36;7.70;99.90
6098;DHT22;3077;50.922;6.584;2023-12-20T13:10:03;7.60;99.90
6098;DHT22;3077;50.922;6.584;2023-12-20T13:12:29;7.50;99.90
6098;DHT22;3077;50.922;6.584;2023-12-20T13:14:55;7.50;99.90
6098;DHT22;3077;50.922;6.584;2023-12-20T13:17:20;7.60;99.90
6098;DHT22;3077;50.922;6.584;2023-12-20T13:19:46;7.60;99.90
6098;DHT22;3077;50.922;6.584;2023-12-20T13:22:12;7.60;99.90
6098;DHT22;3077;50.922;6.584;2023-12-20T13:24:37;7.60;99.90
6098;DHT22;3077;50.922;6.584;2023-12-20T13:27:03;7.40;99.90
6098;DHT22;3077;50.922;6.584;2023-12-20T13:29:29;7.80;99.90
6098;DHT22;3077;50.922;6.584;2023-12-20T13:31:54;8.20;99.90
6098;DHT22;3077;50.922;6.584;2023-12-20T13:34:20;8.40;99.90
6098;DHT22;3077;50.922;6.584;2023-12-20T13:36:46;8.60;99.90
6098;DHT22;3077;50.922;6.584;2023-12-20T13:39:13;8.50;99.90
6098;DHT22;3077;50.922;6.584;2023-12-20T13:41:39;8.10;99.90
6098;DHT22;3077;50.922;6.584;2023-12-20T13:44:05;8.10;99.90
6098;DHT22;3077;50.922;6.584;2023-12-20T13:46:30;8.00;99.90
6098;DHT22;3077;50.922;6.584;2023-12-20T13:48:56;8.20;99.90
6098;DHT22;3077;50.922;6.584;2023-12-20T13:51:22;7.90;99.90
6098;DHT22;3077;50.922;6.584;2023-12-20T13:53:48;7.80;99.90
6098;DHT22;3077;50.922;6.584;2023-12-20T13:56:15;7.80;99.90
6098;DHT22;3077;50.922;6.584;2023-12-20T13:58:40;7.80;99.90
6098;DHT22;3077;50.922;6.584;2023-12-20T14:01:07;7.80;99.90
6098;DHT22;3077;50.922;6.584;2023-12-20T14:03:33;7.80;99.90
6098;DHT22;3077;50.922;6.584;2023-12-20T14:06:00;7.80;99.90
6098;DHT22;3077;50.922;6.584;2023-12-20T14:08:26;7.80;99.90
6098;DHT22;3077;50.922;6.584;2023-12-20T14:10:52;7.80;99.90
6098;DHT22;3077;50.922;6.584;2023-12-20T14:13:18;7.80;99.90
6098;DHT22;3077;50.922;6.584;2023-12-20T14:15:44;7.70;99.90
6098;DHT22;3077;50.922;6.584;2023-12-20T14:18:10;7.60;99.90
6098;DHT22;3077;50.922;6.584;2023-12-20T14:20:36;7.80;99.90
6098;DHT22;3077;50.922;6.584;2023-12-20T14:23:02;7.70;99.90
6098;DHT22;3077;50.922;6.584;2023-12-20T14:25:28;7.90;99.90
6098;DHT22;3077;50.922;6.584;2023-12-20T14:27:54;8.10;99.90
6098;DHT22;3077;50.922;6.584;2023-12-20T14:30:19;7.90;99.90
6098;DHT22;3077;50.922;6.584;2023-12-20T14:32:45;7.80;99.90
6098;DHT22;3077;50.922;6.584;2023-12-20T14:35:13;8.00;99.90
6098;DHT22;3077;50.922;6.584;2023-12-20T14:37:38;7.80;99.90
6098;DHT22;3077;50.922;6.584;2023-12-20T14:40:06;8.00;99.90
6098;DHT22;3077;50.922;6.584;2023-12-20T14:42:35;8.00;99.90
6098;DHT22;3077;50.922;6.584;2023-12-20T14:45:01;8.10;99.90
6098;DHT22;3077;50.922;6.584;2023-12-20T14:47:26;8.30;99.90
6098;DHT22;3077;50.922;6.584;2023-12-20T14:49:52;8.20;99.90
6098;DHT22;3077;50.922;6.584;2023-12-20T14:52:18;8.30;99.90
6098;DHT22;3077;50.922;6.584;2023-12-20T14:54:44;8.20;99.90
6098;DHT22;3077;50.922;6.584;2023-12-20T14:57:10;8.10;99.90
6098;DHT22;3077;50.922;6.584;2023-12-20T14:59:35;8.30;99.90
6098;DHT22;3077;50.922;6.584;2023-12-20T15:02:01;8.30;99.90
6098;DHT22;3077;50.922;6.584;2023-12-20T15:04:30;8.30;99.90
6098;DHT22;3077;50.922;6.584;2023-12-20T15:06:56;8.20;99.90
6098;DHT22;3077;50.922;6.584;2023-12-20T15:09:22;8.20;99.90
6098;DHT22;3077;50.922;6.584;2023-12-20T15:11:47;8.10;99.90
6098;DHT22;3077;50.922;6.584;2023-12-20T15:14:13;7.90;99.90
6098;DHT22;3077;50.922;6.584;2023-12-20T15:16:44;7.90;99.90
6098;DHT22;3077;50.922;6.584;2023-12-20T15:19:10;7.80;99.90
6098;DHT22;3077;50.922;6.584;2023-12-20T15:21:35;7.70;99.90
6098;DHT22;3077;50.922;6.584;2023-12-20T15:24:06;7.50;99.90
6098;DHT22;3077;50.922;6.584;2023-12-20T15:26:38;7.60;99.90
6098;DHT22;3077;50.922;6.584;2023-12-20T15:29:04;7.60;99.90
6098;DHT22;3077;50.922;6.584;2023-12-20T15:31:30;7.50;99.90
6098;DHT22;3077;50.922;6.584;2023-12-20T15:33:56;7.50;99.90
6098;DHT22;3077;50.922;6.584;2023-12-20T15:36:22;7.40;99.90
6098;DHT22;3077;50.922;6.584;2023-12-20T15:38:48;7.40;99.90
6098;DHT22;3077;50.922;6.584;2023-12-20T15:41:20;7.40;99.90
6098;DHT22;3077;50.922;6.584;2023-12-20T15:43:46;7.40;99.90
6098;DHT22;3077;50.922;6.584;2023-12-20T15:46:12;7.10;99.90
6098;DHT22;3077;50.922;6.584;2023-12-20T15:48:40;7.40;99.90
6098;DHT22;3077;50.922;6.584;2023-12-20T15:51:07;7.40;99.90
6098;DHT22;3077;50.922;6.584;2023-12-20T15:53:32;7.40;99.90
6098;DHT22;3077;50.922;6.584;2023-12-20T15:55:59;7.40;99.90
6098;DHT22;3077;50.922;6.584;2023-12-20T15:58:24;7.50;99.90
6098;DHT22;3077;50.922;6.584;2023-12-20T16:00:50;7.50;99.90
6098;DHT22;3077;50.922;6.584;2023-12-20T16:03:16;7.50;99.90
6098;DHT22;3077;50.922;6.584;2023-12-20T16:05:42;7.50;99.90
6098;DHT22;3077;50.922;6.584;2023-12-20T16:08:07;7.50;99.90
6098;DHT22;3077;50.922;6.584;2023-12-20T16:10:33;7.50;99.90
6098;DHT22;3077;50.922;6.584;2023-12-20T16:12:58;7.50;99.90
6098;DHT22;3077;50.922;6.584;2023-12-20T16:15:24;7.50;99.90
6098;DHT22;3077;50.922;6.584;2023-12-20T16:17:50;7.60;99.90
6098;DHT22;3077;50.922;6.584;2023-12-20T16:20:15;7.50;99.90
6098;DHT22;3077;50.922;6.584;2023-12-20T16:22:41;7.50;99.90
6098;DHT22;3077;50.922;6.584;2023-12-20T16:25:07;7.50;99.90